createdAt,value
2023-11-23T00:00:17.934Z,4.25
2023-11-23T00:02:46.989Z,3.40
2023-11-23T00:05:15.903Z,4.47
2023-11-23T00:07:42.526Z,4.40
2023-11-23T00:10:11.902Z,4.28
2023-11-23T00:12:38.819Z,4.50
2023-11-23T00:15:08.296Z,4.38
2023-11-23T00:17:37.210Z,4.15
2023-11-23T00:20:07.253Z,3.95
2023-11-23T00:22:39.097Z,4.13
2023-11-23T00:25:06.365Z,4.32
2023-11-23T00:27:35.410Z,4.20
2023-11-23T00:30:08.069Z,4.15
2023-11-23T00:32:37.597Z,4.40
2023-11-23T00:35:04.794Z,4.10
2023-11-23T00:37:34.272Z,3.88
2023-11-23T00:40:01.025Z,4.20
2023-11-23T00:42:32.487Z,3.97
2023-11-23T00:44:59.148Z,3.95
2023-11-23T00:47:26.032Z,4.28
2023-11-23T00:49:55.153Z,4.10
2023-11-23T00:52:24.050Z,4.53
2023-11-23T00:54:53.227Z,4.28
2023-11-23T00:57:22.401Z,3.78
2023-11-23T00:59:51.368Z,3.83
2023-11-23T01:02:18.660Z,3.65
2023-11-23T01:04:48.459Z,3.95
2023-11-23T01:07:18.588Z,3.72
2023-11-23T01:09:45.389Z,4.10
2023-11-23T01:12:15.341Z,3.75
2023-11-23T01:14:44.378Z,4.20
2023-11-23T01:17:11.055Z,3.53
2023-11-23T01:19:37.799Z,3.80
2023-11-23T01:22:04.687Z,3.67
2023-11-23T01:24:34.342Z,3.70
2023-11-23T01:27:01.121Z,3.30
2023-11-23T01:29:28.244Z,3.60
2023-11-23T01:31:59.601Z,3.55
2023-11-23T01:34:26.429Z,3.58
2023-11-23T01:36:53.235Z,3.92
2023-11-23T01:39:22.116Z,3.65
2023-11-23T01:41:51.813Z,3.38
2023-11-23T01:44:20.857Z,3.40
2023-11-23T01:46:47.612Z,3.55
2023-11-23T01:49:16.606Z,3.55
2023-11-23T01:51:43.557Z,3.65
2023-11-23T01:54:11.433Z,3.55
2023-11-23T01:56:38.176Z,3.22
2023-11-23T01:59:05.419Z,3.08
2023-11-23T02:01:32.682Z,3.15
2023-11-23T02:03:59.936Z,3.47
2023-11-23T02:06:26.703Z,3.30
2023-11-23T02:08:54.416Z,3.05
2023-11-23T02:11:24.413Z,3.40
2023-11-23T02:13:53.324Z,3.05
2023-11-23T02:16:20.090Z,3.40
2023-11-23T02:18:47.157Z,2.92
2023-11-23T02:21:14.066Z,3.35
2023-11-23T02:23:43.032Z,3.25
2023-11-23T02:26:12.081Z,3.20
2023-11-23T02:28:38.781Z,3.60
2023-11-23T02:31:05.803Z,3.15
2023-11-23T02:33:33.178Z,3.42
2023-11-23T02:35:59.992Z,3.10
2023-11-23T02:38:28.844Z,3.17
2023-11-23T02:40:59.217Z,3.20
2023-11-23T02:43:26.890Z,3.37
2023-11-23T02:45:57.091Z,3.42
2023-11-23T02:48:26.252Z,3.53
2023-11-23T02:50:53.291Z,3.00
2023-11-23T02:53:31.128Z,3.40
2023-11-23T02:55:57.857Z,3.05
2023-11-23T02:58:29.900Z,3.03
2023-11-23T03:00:58.911Z,3.20
2023-11-23T03:03:26.032Z,3.40
2023-11-23T03:05:55.058Z,3.10
2023-11-23T03:08:21.750Z,2.85
2023-11-23T03:10:49.285Z,3.28
2023-11-23T03:13:15.992Z,2.90
2023-11-23T03:15:42.644Z,3.47
2023-11-23T03:18:12.882Z,3.28
2023-11-23T03:20:40.958Z,3.10
2023-11-23T03:23:09.982Z,3.20
2023-11-23T03:25:36.721Z,3.10
2023-11-23T03:28:05.432Z,3.15
2023-11-23T03:30:32.117Z,3.35
2023-11-23T03:32:58.827Z,3.10
2023-11-23T03:35:25.573Z,3.00
2023-11-23T03:37:53.212Z,2.88
2023-11-23T03:40:24.676Z,3.10
2023-11-23T03:42:51.358Z,2.83
2023-11-23T03:45:21.316Z,2.97
2023-11-23T03:47:48.506Z,2.83
2023-11-23T03:50:18.608Z,2.90
2023-11-23T03:52:45.361Z,2.80
2023-11-23T03:55:12.035Z,2.90
2023-11-23T03:57:41.942Z,2.72
2023-11-23T04:00:09.338Z,3.22
2023-11-23T04:02:39.281Z,2.97
2023-11-23T04:05:06.539Z,2.90
2023-11-23T04:07:33.536Z,3.00
2023-11-23T04:10:03.394Z,2.83
2023-11-23T04:12:30.053Z,2.90
2023-11-23T04:14:57.186Z,2.80
2023-11-23T04:17:23.999Z,2.60
2023-11-23T04:19:52.822Z,2.47
2023-11-23T04:22:21.827Z,2.63
2023-11-23T04:24:49.144Z,2.78
2023-11-23T04:27:16.174Z,2.60
2023-11-23T04:29:49.447Z,2.70
2023-11-23T04:32:18.454Z,2.47
2023-11-23T04:34:47.865Z,2.60
2023-11-23T04:37:14.520Z,2.67
2023-11-23T04:39:41.253Z,2.38
2023-11-23T04:42:12.956Z,2.55
2023-11-23T04:44:41.900Z,2.85
2023-11-23T04:47:08.606Z,2.58
2023-11-23T04:49:35.763Z,2.75
2023-11-23T04:52:05.189Z,3.08
2023-11-23T04:54:34.745Z,2.50
2023-11-23T04:57:03.930Z,2.60
2023-11-23T04:59:30.762Z,2.42
2023-11-23T05:01:57.983Z,2.85
2023-11-23T05:04:26.976Z,2.80
2023-11-23T05:06:56.906Z,2.75
2023-11-23T05:09:28.953Z,2.53
2023-11-23T05:11:59.021Z,2.78
2023-11-23T05:14:26.512Z,2.47
2023-11-23T05:16:55.478Z,2.40
2023-11-23T05:19:35.307Z,2.60
2023-11-23T05:22:06.665Z,2.70
2023-11-23T05:24:33.663Z,2.70
2023-11-23T05:27:00.520Z,2.88
2023-11-23T05:29:29.589Z,2.67
2023-11-23T05:31:58.386Z,2.55
2023-11-23T05:34:25.042Z,2.70
2023-11-23T05:36:51.715Z,2.50
2023-11-23T05:39:18.939Z,2.72
2023-11-23T05:41:46.081Z,2.60
2023-11-23T05:44:15.140Z,2.60
2023-11-23T05:46:41.970Z,2.50
2023-11-23T05:49:08.864Z,2.50
2023-11-23T05:51:37.949Z,2.50
2023-11-23T05:54:07.383Z,2.85
2023-11-23T05:56:36.964Z,2.67
2023-11-23T05:59:05.894Z,2.42
2023-11-23T06:01:35.747Z,2.67
2023-11-23T06:04:04.759Z,2.60
2023-11-23T06:06:33.669Z,2.72
2023-11-23T06:09:02.601Z,2.50
2023-11-23T06:11:29.366Z,2.40
2023-11-23T06:13:56.146Z,2.75
2023-11-23T06:16:22.913Z,2.70
2023-11-23T06:18:49.913Z,5.88
2023-11-23T06:21:17.888Z,12.00
2023-11-23T06:23:48.557Z,12.27
2023-11-23T06:26:15.366Z,11.77
2023-11-23T06:28:44.701Z,12.63
2023-11-23T06:31:16.010Z,11.90
2023-11-23T06:33:48.197Z,12.27
2023-11-23T06:36:17.394Z,12.82
2023-11-23T06:38:44.318Z,12.40
2023-11-23T06:41:26.740Z,13.55
2023-11-23T06:43:56.049Z,13.02
2023-11-23T06:46:23.135Z,11.98
2023-11-23T06:48:50.075Z,10.55
2023-11-23T06:51:19.126Z,9.27
2023-11-23T06:53:47.394Z,11.52
2023-11-23T06:56:16.816Z,12.18
2023-11-23T06:58:50.190Z,11.50
2023-11-23T07:01:17.788Z,12.20
2023-11-23T07:03:47.448Z,11.82
2023-11-23T07:06:17.658Z,11.15
2023-11-23T07:08:46.658Z,11.10
2023-11-23T07:11:19.017Z,11.18
2023-11-23T07:13:49.040Z,10.63
2023-11-23T07:16:18.083Z,8.98
2023-11-23T07:18:44.864Z,9.20
2023-11-23T07:21:11.824Z,9.60
2023-11-23T07:23:40.683Z,9.25
2023-11-23T07:26:10.433Z,8.50
2023-11-23T07:28:37.266Z,8.80
2023-11-23T07:31:04.510Z,8.27
2023-11-23T07:33:35.750Z,8.35
2023-11-23T07:38:35.302Z,8.27
2023-11-23T07:41:06.421Z,8.00
2023-11-23T07:46:01.244Z,7.90
2023-11-23T07:48:32.987Z,7.97
2023-11-23T07:50:59.704Z,7.90
2023-11-23T07:53:31.517Z,7.80
2023-11-23T07:55:58.766Z,7.70
2023-11-23T07:58:28.608Z,7.75
2023-11-23T08:00:55.562Z,7.30
2023-11-23T08:03:22.864Z,7.80
2023-11-23T08:05:51.791Z,7.32
2023-11-23T08:08:22.440Z,7.20
2023-11-23T08:10:49.747Z,7.07
2023-11-23T08:13:24.366Z,6.70
2023-11-23T08:15:55.023Z,7.07
2023-11-23T08:18:36.122Z,7.45
2023-11-23T08:21:10.322Z,6.90
2023-11-23T08:23:37.139Z,7.00
2023-11-23T08:26:05.120Z,6.30
2023-11-23T08:28:31.759Z,7.00
2023-11-23T08:30:58.745Z,7.00
2023-11-23T08:33:25.619Z,7.03
2023-11-23T08:35:54.785Z,7.18
2023-11-23T08:38:21.572Z,7.53
2023-11-23T08:41:01.772Z,7.15
2023-11-23T13:15:51.200Z,11.80
2023-11-23T13:18:20.595Z,9.90
2023-11-23T13:20:50.113Z,9.27
2023-11-23T13:23:17.243Z,8.80
2023-11-23T13:30:44.337Z,9.23
2023-11-23T13:33:17.032Z,8.48
2023-11-23T13:38:26.842Z,7.60
2023-11-23T13:40:55.147Z,8.52
2023-11-23T13:43:22.039Z,8.07
2023-11-23T13:45:50.873Z,8.68
2023-11-23T22:45:00.467Z,9.53
2023-11-23T22:47:44.207Z,6.45
2023-11-23T22:50:14.188Z,6.93
2023-11-23T22:52:41.039Z,6.60
2023-11-23T22:55:08.402Z,7.13
2023-11-23T22:57:37.523Z,6.75
2023-11-23T23:00:11.326Z,7.00
2023-11-23T23:02:38.235Z,6.45
2023-11-23T23:05:06.214Z,6.35
2023-11-23T23:07:34.922Z,6.32
2023-11-23T23:10:22.794Z,6.30
2023-11-23T23:12:49.680Z,6.82
2023-11-23T23:15:20.001Z,6.43
2023-11-23T23:17:47.272Z,6.30
2023-11-23T23:20:16.343Z,6.53
2023-11-23T23:22:43.208Z,6.28
2023-11-23T23:25:10.332Z,6.20
2023-11-23T23:27:37.284Z,6.07
2023-11-23T23:30:07.380Z,6.03
2023-11-23T23:32:34.642Z,5.97
2023-11-23T23:35:01.799Z,5.90
2023-11-23T23:37:31.343Z,5.95
2023-11-23T23:39:58.311Z,6.05
2023-11-23T23:42:27.169Z,6.07
2023-11-23T23:44:57.355Z,6.25
2023-11-23T23:47:24.589Z,5.63
2023-11-23T23:49:51.439Z,5.40
2023-11-23T23:52:18.355Z,5.40
2023-11-23T23:54:50.325Z,5.85
2023-11-23T23:57:17.368Z,5.82
2023-11-23T23:59:44.198Z,5.97
